createdAt,value
2022-10-09T00:02:00.026Z,8.77
2022-10-09T00:05:02.744Z,8.33
2022-10-09T00:08:04.708Z,6.83
2022-10-09T00:11:15.427Z,7.10
2022-10-09T00:14:17.319Z,7.83
2022-10-09T00:17:19.237Z,9.43
2022-10-09T00:20:21.158Z,8.40
2022-10-09T00:23:23.054Z,6.70
2022-10-09T00:26:26.308Z,8.27
2022-10-09T00:29:28.098Z,6.67
2022-10-09T00:32:29.972Z,7.80
2022-10-09T00:35:31.847Z,7.70
2022-10-09T00:38:34.303Z,7.43
2022-10-09T00:41:36.128Z,6.33
2022-10-09T00:45:05.237Z,8.90
2022-10-09T00:48:08.502Z,9.40
2022-10-09T00:51:10.527Z,7.23
2022-10-09T00:54:15.890Z,8.37
2022-10-09T00:57:17.798Z,9.33
2022-10-09T01:00:19.769Z,6.13
2022-10-09T01:03:21.718Z,8.43
2022-10-09T01:06:42.813Z,12.80
2022-10-09T01:09:58.353Z,7.03
2022-10-09T01:13:16.347Z,10.57
2022-10-09T01:16:39.723Z,16.87
2022-10-09T01:19:58.098Z,8.13
2022-10-09T01:23:31.987Z,11.90
2022-10-09T01:26:56.487Z,11.27
2022-10-09T01:30:07.703Z,8.50
2022-10-09T01:33:10.478Z,18.47
2022-10-09T01:36:12.998Z,7.00
2022-10-09T01:39:18.253Z,9.97
2022-10-09T01:42:22.014Z,6.63
2022-10-09T01:45:23.964Z,5.80
2022-10-09T01:48:26.673Z,9.47
2022-10-09T01:52:17.089Z,11.60
2022-10-09T01:55:20.976Z,7.90
2022-10-09T01:58:42.177Z,5.33
2022-10-09T02:01:46.854Z,9.77
2022-10-09T02:04:49.647Z,4.97
2022-10-09T02:07:52.202Z,7.37
2022-10-09T02:10:56.424Z,5.37
2022-10-09T02:13:59.432Z,8.67
2022-10-09T02:17:08.932Z,5.10
2022-10-09T02:20:18.753Z,7.40
2022-10-09T02:23:22.302Z,8.30
2022-10-09T02:26:24.762Z,6.27
2022-10-09T02:29:26.582Z,8.40
2022-10-09T02:32:29.214Z,14.70
2022-10-09T02:35:31.508Z,8.83
2022-10-09T02:38:33.445Z,7.90
2022-10-09T02:41:35.899Z,7.80
2022-10-09T02:44:37.912Z,6.33
2022-10-09T02:47:39.832Z,7.47
2022-10-09T02:50:41.824Z,5.57
2022-10-09T02:53:44.218Z,9.37
2022-10-09T02:56:46.192Z,8.53
2022-10-09T02:59:48.169Z,6.77
2022-10-09T03:02:50.325Z,7.23
2022-10-09T03:06:04.194Z,4.83
2022-10-09T03:09:06.099Z,6.10
2022-10-09T03:12:08.082Z,6.43
2022-10-09T03:15:10.752Z,6.73
2022-10-09T03:18:12.709Z,5.57
2022-10-09T03:21:17.288Z,7.20
2022-10-09T03:24:20.138Z,8.13
2022-10-09T03:27:21.983Z,5.77
2022-10-09T03:30:23.888Z,8.40
2022-10-09T03:33:25.778Z,10.63
2022-10-09T03:36:27.799Z,9.03
2022-10-09T03:39:29.707Z,8.03
2022-10-09T03:42:31.723Z,6.57
2022-10-09T03:45:33.537Z,7.53
2022-10-09T03:48:36.553Z,10.80
2022-10-09T03:51:38.582Z,10.80
2022-10-09T03:54:40.427Z,10.53
2022-10-09T03:57:42.428Z,9.60
2022-10-09T04:00:45.635Z,6.40
2022-10-09T04:03:47.603Z,4.80
2022-10-09T04:06:49.838Z,6.40
2022-10-09T04:09:51.745Z,9.63
2022-10-09T04:12:53.648Z,5.30
2022-10-09T04:15:56.257Z,6.97
2022-10-09T04:18:58.247Z,10.70
2022-10-09T04:22:00.163Z,6.93
2022-10-09T04:25:02.051Z,11.90
2022-10-09T04:28:04.210Z,7.90
2022-10-09T04:31:06.159Z,8.97
2022-10-09T04:34:08.028Z,8.73
2022-10-09T04:37:09.863Z,10.43
2022-10-09T04:40:13.560Z,8.00
2022-10-09T04:43:15.433Z,7.50
2022-10-09T04:46:17.414Z,12.37
2022-10-09T04:49:19.513Z,9.47
2022-10-09T04:52:22.161Z,12.07
2022-10-09T04:55:24.047Z,8.50
2022-10-09T04:58:25.992Z,8.80
2022-10-09T05:01:30.990Z,8.13
2022-10-09T05:04:34.976Z,10.93
2022-10-09T05:07:36.772Z,9.40
2022-10-09T05:10:38.659Z,9.57
2022-10-09T05:13:43.035Z,9.13
2022-10-09T05:17:12.000Z,6.77
2022-10-09T05:20:07.395Z,7.17
2022-10-09T05:23:09.379Z,6.47
2022-10-09T05:26:14.555Z,5.93
2022-10-09T05:29:17.183Z,8.00
2022-10-09T05:32:19.038Z,8.03
2022-10-09T05:35:20.967Z,9.20
2022-10-09T05:38:24.194Z,6.47
2022-10-09T05:41:26.139Z,7.83
2022-10-09T05:44:28.074Z,6.73
2022-10-09T05:47:33.113Z,6.53
2022-10-09T05:50:35.044Z,13.33
2022-10-09T05:53:37.514Z,7.00
2022-10-09T05:56:39.739Z,5.87
2022-10-09T05:59:41.663Z,7.10
2022-10-09T06:02:43.633Z,8.90
2022-10-09T06:05:45.638Z,5.00
2022-10-09T06:08:47.790Z,5.27
2022-10-09T06:11:51.193Z,9.90
2022-10-09T06:14:53.164Z,8.33
2022-10-09T06:17:55.154Z,9.60
2022-10-09T06:20:59.398Z,11.53
2022-10-09T06:24:04.492Z,10.87
2022-10-09T06:27:06.597Z,14.63
2022-10-09T06:30:09.718Z,19.27
2022-10-09T06:33:11.553Z,23.70
2022-10-09T06:36:15.833Z,22.20
2022-10-09T06:39:17.824Z,24.87
2022-10-09T06:42:19.739Z,24.67
2022-10-09T06:45:21.603Z,24.43
2022-10-09T06:48:23.642Z,25.13
2022-10-09T06:51:28.357Z,24.27
2022-10-09T06:54:30.452Z,24.20
2022-10-09T06:57:32.368Z,24.63
2022-10-09T07:00:34.228Z,18.17
2022-10-09T07:03:37.152Z,23.10
2022-10-09T07:06:42.201Z,26.07
2022-10-09T07:09:44.209Z,23.40
2022-10-09T07:12:46.519Z,24.63
2022-10-09T07:15:48.874Z,23.80
2022-10-09T07:18:51.338Z,23.33
2022-10-09T07:21:53.683Z,22.63
2022-10-09T07:24:56.129Z,25.67
2022-10-09T07:27:57.958Z,30.00
2022-10-09T07:31:04.416Z,26.70
2022-10-09T07:34:06.769Z,24.73
2022-10-09T07:37:08.743Z,22.00
2022-10-09T07:40:10.913Z,23.27
2022-10-09T07:43:13.214Z,26.50
2022-10-09T07:46:17.638Z,28.23
2022-10-09T07:49:21.277Z,25.17
2022-10-09T07:52:23.112Z,22.37
2022-10-09T07:55:25.094Z,21.73
2022-10-09T07:58:26.954Z,22.07
2022-10-09T08:01:30.216Z,21.47
2022-10-09T08:04:32.143Z,20.07
2022-10-09T08:07:35.038Z,22.60
2022-10-09T08:10:37.059Z,17.77
2022-10-09T08:13:39.403Z,19.53
2022-10-09T08:16:41.243Z,19.07
2022-10-09T08:19:43.158Z,21.13
2022-10-09T08:22:44.968Z,23.60
2022-10-09T08:25:48.243Z,18.13
2022-10-09T08:28:52.721Z,19.03
2022-10-09T08:31:55.002Z,23.23
2022-10-09T08:34:56.829Z,18.07
2022-10-09T08:37:58.762Z,17.90
2022-10-09T08:41:08.388Z,18.17
2022-10-09T08:44:19.467Z,16.77
2022-10-09T08:47:36.699Z,20.03
2022-10-09T08:50:42.203Z,16.97
2022-10-09T08:53:49.308Z,18.43
2022-10-09T08:56:52.937Z,14.27
2022-10-09T08:59:54.840Z,12.93
2022-10-09T09:03:26.143Z,14.10
2022-10-09T09:06:49.138Z,15.70
2022-10-09T09:10:06.540Z,13.87
2022-10-09T09:13:36.208Z,13.40
2022-10-09T09:16:42.933Z,12.27
2022-10-09T09:20:01.105Z,14.70
2022-10-09T09:23:03.187Z,15.23
2022-10-09T09:26:16.042Z,12.33
2022-10-09T09:29:23.663Z,10.73
2022-10-09T09:32:28.693Z,13.10
2022-10-09T09:35:52.200Z,12.90
2022-10-09T09:39:36.207Z,10.67
2022-10-09T09:42:20.954Z,10.13
2022-10-09T09:45:24.978Z,9.77
2022-10-09T09:48:36.520Z,15.73
2022-10-09T09:51:38.389Z,12.27
2022-10-09T09:54:42.138Z,11.50
2022-10-09T09:57:45.655Z,10.73
2022-10-09T10:00:56.819Z,9.77
2022-10-09T10:04:01.548Z,15.33
2022-10-09T10:07:04.189Z,11.10
2022-10-09T10:10:25.715Z,9.57
2022-10-09T10:13:47.319Z,9.40
2022-10-09T10:16:51.062Z,9.90
2022-10-09T10:19:53.039Z,10.60
2022-10-09T10:22:57.128Z,15.30
2022-10-09T10:26:02.122Z,8.07
2022-10-09T10:29:20.233Z,11.67
2022-10-09T10:32:33.587Z,7.70
2022-10-09T10:35:42.094Z,8.63
2022-10-09T10:38:49.685Z,10.07
2022-10-09T10:41:53.102Z,6.43
2022-10-09T10:45:04.146Z,8.17
2022-10-09T10:48:29.934Z,9.23
2022-10-09T10:51:50.600Z,10.47
2022-10-09T10:54:52.398Z,7.00
2022-10-09T10:58:27.174Z,6.63
2022-10-09T11:01:54.784Z,8.53
2022-10-09T11:05:23.167Z,8.17
2022-10-09T11:08:39.074Z,10.50
2022-10-09T11:11:50.738Z,6.13
2022-10-09T11:15:21.463Z,6.67
2022-10-09T11:18:41.347Z,6.77
2022-10-09T11:21:57.981Z,9.33
2022-10-09T11:25:37.083Z,9.17
2022-10-09T11:29:22.084Z,7.43
2022-10-09T11:32:36.957Z,13.00
2022-10-09T11:35:45.520Z,6.87
2022-10-09T11:39:11.538Z,6.53
2022-10-09T11:42:17.425Z,6.47
2022-10-09T11:45:37.056Z,11.60
2022-10-09T11:48:48.922Z,8.57
2022-10-09T11:51:58.092Z,6.37
2022-10-09T11:55:24.514Z,6.23
2022-10-09T11:58:26.884Z,7.67
2022-10-09T12:01:37.889Z,8.03
2022-10-09T12:04:55.893Z,6.03
2022-10-09T12:08:14.066Z,7.83
2022-10-09T12:11:19.919Z,9.03
2022-10-09T12:14:27.432Z,7.30
2022-10-09T12:17:31.937Z,7.23
2022-10-09T12:20:34.399Z,7.50
2022-10-09T12:23:38.262Z,5.20
2022-10-09T12:26:41.069Z,4.97
2022-10-09T12:29:51.752Z,5.90
2022-10-09T12:33:14.588Z,5.20
2022-10-09T12:36:24.182Z,4.47
2022-10-09T12:39:26.084Z,4.70
2022-10-09T12:42:28.165Z,5.87
2022-10-09T12:45:31.592Z,7.33
2022-10-09T12:48:39.264Z,4.60
2022-10-09T12:51:41.165Z,4.17
2022-10-09T12:54:45.237Z,7.70
2022-10-09T12:57:47.133Z,6.13
2022-10-09T13:00:51.303Z,4.33
2022-10-09T13:03:54.668Z,5.90
2022-10-09T13:06:58.299Z,9.30
2022-10-09T13:10:06.651Z,5.50
2022-10-09T13:13:20.827Z,4.90
2022-10-09T13:16:23.684Z,3.50
2022-10-09T13:19:30.928Z,4.47
2022-10-09T13:22:35.160Z,3.73
2022-10-09T13:25:41.017Z,5.07
2022-10-09T13:28:43.050Z,4.87
2022-10-09T13:31:45.198Z,4.57
2022-10-09T13:34:47.672Z,6.10
2022-10-09T13:37:49.822Z,6.60
2022-10-09T13:40:52.263Z,5.67
2022-10-09T13:43:54.277Z,6.23
2022-10-09T13:46:56.203Z,4.23
2022-10-09T13:49:58.144Z,5.93
2022-10-09T13:53:00.442Z,3.17
2022-10-09T13:56:04.939Z,8.23
2022-10-09T13:59:06.808Z,5.00
2022-10-09T14:02:10.629Z,7.97
2022-10-09T14:05:12.545Z,4.43
2022-10-09T14:08:14.568Z,4.83
2022-10-09T14:11:17.297Z,3.10
2022-10-09T14:14:19.242Z,4.90
2022-10-09T14:17:21.504Z,6.03
2022-10-09T14:20:26.189Z,8.27
2022-10-09T14:23:28.060Z,6.23
2022-10-09T14:26:30.920Z,6.37
2022-10-09T14:29:33.053Z,5.73
2022-10-09T14:32:34.958Z,4.50
2022-10-09T14:35:36.873Z,5.80
2022-10-09T14:38:40.123Z,6.37
2022-10-09T14:41:42.593Z,6.10
2022-10-09T14:44:44.558Z,8.33
2022-10-09T14:47:46.383Z,5.20
2022-10-09T14:50:48.528Z,4.83
2022-10-09T14:53:50.675Z,3.93
2022-10-09T14:56:52.808Z,5.80
2022-10-09T14:59:54.643Z,4.00
2022-10-09T15:02:59.022Z,6.13
2022-10-09T15:06:05.033Z,6.57
2022-10-09T15:09:07.013Z,5.13
2022-10-09T15:12:08.872Z,5.93
2022-10-09T15:15:11.302Z,7.50
2022-10-09T15:18:13.155Z,6.90
2022-10-09T15:21:18.332Z,8.23
2022-10-09T15:24:20.239Z,6.83
2022-10-09T15:27:22.398Z,4.57
2022-10-09T15:30:24.325Z,8.10
2022-10-09T15:33:26.923Z,6.07
2022-10-09T15:36:30.354Z,5.77
2022-10-09T15:39:34.387Z,6.83
2022-10-09T15:42:37.459Z,4.87
2022-10-09T15:45:39.803Z,5.23
2022-10-09T15:48:42.068Z,5.47
2022-10-09T15:51:44.048Z,7.90
2022-10-09T15:54:45.959Z,6.67
2022-10-09T15:57:47.996Z,4.60
2022-10-09T16:00:50.549Z,3.73
2022-10-09T16:03:52.577Z,4.60
2022-10-09T16:06:54.583Z,7.97
2022-10-09T16:09:57.561Z,4.57
2022-10-09T16:13:00.838Z,8.70
2022-10-09T16:16:05.335Z,6.70
2022-10-09T16:19:07.348Z,7.13
2022-10-09T16:22:09.186Z,3.43
2022-10-09T16:25:11.545Z,4.53
2022-10-09T16:28:13.502Z,5.00
2022-10-09T16:31:23.271Z,7.57
2022-10-09T16:34:25.194Z,4.87
2022-10-09T16:37:27.077Z,6.93
2022-10-09T16:40:49.877Z,7.77
2022-10-09T16:43:55.246Z,4.53
2022-10-09T16:46:58.635Z,6.43
2022-10-09T16:50:00.912Z,6.23
2022-10-09T16:53:02.823Z,8.07
2022-10-09T16:56:10.248Z,6.80
2022-10-09T16:59:14.602Z,4.47
2022-10-09T17:02:16.554Z,7.77
2022-10-09T17:05:18.988Z,6.37
2022-10-09T17:08:20.979Z,6.47
2022-10-09T17:11:23.584Z,6.50
2022-10-09T17:14:26.574Z,5.03
2022-10-09T17:17:28.839Z,8.00
2022-10-09T17:20:30.813Z,5.90
2022-10-09T17:23:33.491Z,6.67
2022-10-09T17:26:36.092Z,4.97
2022-10-09T17:29:37.922Z,7.63
2022-10-09T17:32:39.902Z,9.93
2022-10-09T17:35:43.999Z,5.70
2022-10-09T17:38:46.928Z,6.67
2022-10-09T17:41:49.489Z,8.77
2022-10-09T17:44:51.940Z,15.47
2022-10-09T17:47:53.803Z,9.67
2022-10-09T17:50:58.217Z,5.67
2022-10-09T17:54:04.942Z,11.43
2022-10-09T17:57:13.629Z,24.87
2022-10-09T18:00:20.846Z,7.70
2022-10-09T18:03:23.788Z,6.77
2022-10-09T18:06:26.003Z,4.63
2022-10-09T18:09:27.890Z,6.23
2022-10-09T18:12:29.695Z,6.87
2022-10-09T18:15:32.106Z,7.50
2022-10-09T18:18:34.044Z,4.70
2022-10-09T18:21:36.037Z,5.60
2022-10-09T18:24:37.902Z,5.80
2022-10-09T18:27:39.837Z,9.23
2022-10-09T18:30:46.360Z,8.83
2022-10-09T18:33:48.623Z,8.37
2022-10-09T18:36:52.202Z,7.20
2022-10-09T18:39:54.419Z,5.97
2022-10-09T18:42:56.324Z,5.63
2022-10-09T18:45:59.168Z,9.63
2022-10-09T18:49:01.485Z,4.00
2022-10-09T18:52:04.124Z,4.00
2022-10-09T18:55:08.347Z,5.73
2022-10-09T18:58:10.967Z,8.53
2022-10-09T19:01:12.894Z,4.67
2022-10-09T19:04:16.014Z,4.40
2022-10-09T19:07:17.923Z,5.30
2022-10-09T19:10:19.848Z,6.83
2022-10-09T19:13:21.891Z,8.50
2022-10-09T19:16:24.979Z,9.53
2022-10-09T19:19:26.831Z,7.90
2022-10-09T19:22:29.212Z,9.63
2022-10-09T19:25:31.109Z,6.80
2022-10-09T19:28:37.942Z,5.33
2022-10-09T19:31:39.945Z,10.10
2022-10-09T19:34:42.328Z,11.23
2022-10-09T19:37:44.174Z,16.90
2022-10-09T19:40:47.273Z,17.07
2022-10-09T19:43:49.128Z,10.53
2022-10-09T19:46:51.150Z,10.03
2022-10-09T19:49:53.003Z,15.20
2022-10-09T19:52:56.003Z,9.53
2022-10-09T19:55:57.853Z,11.47
2022-10-09T19:59:04.416Z,12.73
2022-10-09T20:02:08.069Z,13.23
2022-10-09T20:05:09.973Z,8.97
2022-10-09T20:08:11.833Z,7.10
2022-10-09T20:11:14.371Z,11.37
2022-10-09T20:14:16.224Z,13.03
2022-10-09T20:17:19.130Z,9.50
2022-10-09T20:20:21.893Z,14.63
2022-10-09T20:23:24.110Z,4.23
2022-10-09T20:26:27.114Z,5.37
2022-10-09T20:29:29.108Z,10.80
2022-10-09T20:32:33.786Z,8.10
2022-10-09T20:35:44.853Z,4.47
2022-10-09T20:38:46.864Z,6.77
2022-10-09T20:41:48.974Z,4.20
2022-10-09T20:44:51.457Z,6.57
2022-10-09T20:47:53.442Z,4.73
2022-10-09T20:50:55.288Z,4.67
2022-10-09T20:53:59.583Z,6.27
2022-10-09T20:57:01.403Z,6.00
2022-10-09T21:00:06.203Z,7.37
2022-10-09T21:03:12.221Z,9.27
2022-10-09T21:06:17.934Z,7.83
2022-10-09T21:09:19.851Z,8.00
2022-10-09T21:12:21.738Z,8.33
2022-10-09T21:15:23.758Z,4.17
2022-10-09T21:18:25.683Z,5.63
2022-10-09T21:21:28.896Z,6.63
2022-10-09T21:24:30.796Z,4.50
2022-10-09T21:27:32.674Z,8.67
2022-10-09T21:30:41.779Z,5.93
2022-10-09T21:33:44.182Z,4.33
2022-10-09T21:37:16.465Z,5.83
2022-10-09T21:40:10.579Z,12.17
2022-10-09T21:43:13.184Z,5.37
2022-10-09T21:46:17.367Z,3.50
2022-10-09T21:49:21.783Z,5.60
2022-10-09T21:52:23.604Z,3.83
2022-10-09T21:55:25.787Z,4.03
2022-10-09T21:58:27.633Z,7.80
2022-10-09T22:01:29.553Z,4.80
2022-10-09T22:04:31.524Z,4.60
2022-10-09T22:07:34.117Z,5.40
2022-10-09T22:10:35.924Z,4.23
2022-10-09T22:13:38.439Z,7.50
2022-10-09T22:16:40.258Z,6.50
2022-10-09T22:19:42.213Z,7.67
2022-10-09T22:22:44.109Z,3.10
2022-10-09T22:25:56.140Z,4.03
2022-10-09T22:28:58.305Z,3.90
2022-10-09T22:32:00.332Z,8.40
2022-10-09T22:35:02.283Z,5.33
2022-10-09T22:38:04.319Z,8.00
2022-10-09T22:41:16.629Z,13.07
2022-10-09T22:44:19.733Z,6.77
2022-10-09T22:47:21.568Z,9.13
2022-10-09T22:50:23.503Z,8.50
2022-10-09T22:53:25.393Z,3.27
2022-10-09T22:56:32.878Z,6.47
2022-10-09T22:59:34.700Z,4.07
2022-10-09T23:02:37.088Z,6.30
2022-10-09T23:05:39.083Z,5.13
2022-10-09T23:08:43.484Z,4.30
2022-10-09T23:11:46.262Z,7.83
2022-10-09T23:14:48.245Z,7.80
2022-10-09T23:17:50.149Z,6.07
2022-10-09T23:20:52.178Z,4.53
2022-10-09T23:23:54.761Z,11.20
2022-10-09T23:26:56.808Z,4.53
2022-10-09T23:29:59.079Z,10.43
2022-10-09T23:33:01.033Z,9.47
2022-10-09T23:36:04.203Z,9.67
2022-10-09T23:39:07.114Z,7.17
2022-10-09T23:42:09.674Z,6.70
2022-10-09T23:45:12.065Z,5.23
2022-10-09T23:48:13.863Z,8.77
2022-10-09T23:51:17.447Z,6.63
2022-10-09T23:54:19.309Z,4.83
2022-10-09T23:57:21.205Z,8.67
